Pagrindinis puslapis
METAR-TAF:

METAR-TAF

Oro uostai :

Chartumas, Sudanas

platuma: 15-36N, ilguma: 032-33E, Aukštis: 382 m

Dabartinis oras

Ataskaita buvo paskelbta 29 minutes, ne 05:30 UTC
Vėjas 11 kt iš Šiaurės
Temperatūra 19°C
Drėgmė 21%
Slėgis 1015 hPa
Matomumas 10 km arba daugiau
nėra debesų žemiau 1500 m ir nėra kamuolinių lietaus debesų

METAR: HSSS 230530Z 35011KT CAVOK 19/M04 Q1015 NOSIG

Laikas: 07:59 (05:59 UTC)

Prognozė

Ataskaita buvo paskelbta 59 minutes, ne 05:00 UTC
Prognozė galioja nuo 23 metu 06 UTC su 24 metu 12 UTC
Vėjas 12 kt iš Šiaurės su gūsio iki 22 kt
Matomumas 10 km arba daugiau
nėra debesų žemiau 1500 m ir nėra kamuolinių lietaus debesų
Laikinai
nuo 23 metu 06 UTC su 23 metu 09 UTC
Matomumas: 6000 m

TAF: HSSS 230500Z 2306/2412 36012G22KT CAVOK TEMPO 2306/2309 6000 NSC

Orai ataskaitas ir orų prognozės (METAR, TAF).

turimą stotys yra geltonos ir raudonos taškus žemėlapyje.

Perkelti pele per norėdami pamatyti stoties vardą.

Tada spustelėkite, norėdami matyti oro stebėjimo ir prognozės.

Norėdami pakeisti žemėlapį: spustelėkite ant žalios mygtukų su juodo kryžiaus žemyn,; žalią mygtuką su brūkšneliu, jei norite nutolinti; arba žalių rodyklių gretimoms žemėlapius.


METAR-TAF: